createdAt,value
2019-04-21T00:00:11.056Z,61.60
2019-04-21T00:01:14.585Z,61.40
2019-04-21T00:02:26.411Z,61.30
2019-04-21T00:03:34.507Z,61.50
2019-04-21T00:04:43.327Z,61.50
2019-04-21T00:05:57.551Z,61.50
2019-04-21T00:07:04.423Z,61.10
2019-04-21T00:08:16.906Z,61.40
2019-04-21T00:09:18.135Z,61.70
2019-04-21T00:10:23.511Z,61.30
2019-04-21T00:11:32.992Z,61.20
2019-04-21T00:12:32.384Z,61.10
2019-04-21T00:13:33.135Z,60.70
2019-04-21T00:14:34.994Z,60.50
2019-04-21T00:15:39.937Z,60.80
2019-04-21T00:16:44.140Z,60.60
2019-04-21T00:17:50.827Z,60.80
2019-04-21T00:19:02.581Z,61.00
2019-04-21T00:20:15.045Z,61.00
2019-04-21T00:21:17.602Z,61.60
2019-04-21T00:22:23.721Z,61.60
2019-04-21T00:23:39.650Z,61.40
2019-04-21T00:24:43.489Z,60.80
2019-04-21T00:25:46.066Z,61.00
2019-04-21T00:26:57.422Z,61.40
2019-04-21T00:28:12.228Z,61.00
2019-04-21T00:29:18.707Z,61.40
2019-04-21T00:30:24.054Z,61.40
2019-04-21T00:31:24.618Z,61.30
2019-04-21T00:32:25.681Z,61.10
2019-04-21T00:33:24.349Z,61.30
2019-04-21T00:34:23.741Z,61.20
2019-04-21T00:35:30.823Z,61.20
2019-04-21T00:36:47.298Z,61.30
2019-04-21T00:38:00.370Z,60.90
2019-04-21T00:39:14.557Z,61.00
2019-04-21T00:40:29.770Z,61.10
2019-04-21T00:41:18.808Z,61.20
2019-04-21T00:42:25.649Z,60.90
2019-04-21T00:43:29.389Z,61.30
2019-04-21T00:44:27.453Z,61.10
2019-04-21T00:45:36.448Z,61.10
2019-04-21T00:46:43.630Z,60.60
2019-04-21T00:47:54.558Z,60.50
2019-04-21T00:48:56.483Z,61.00
2019-04-21T00:50:08.109Z,61.20
2019-04-21T00:51:25.151Z,61.00
2019-04-21T00:53:58.344Z,61.40
2019-04-21T00:55:10.375Z,61.80
2019-04-21T00:56:11.930Z,61.80
2019-04-21T00:57:14.537Z,61.60
2019-04-21T00:58:20.781Z,61.90
2019-04-21T00:59:29.533Z,62.10
2019-04-21T01:00:27.340Z,61.70
2019-04-21T01:01:31.222Z,61.20
2019-04-21T01:02:46.883Z,61.30
2019-04-21T01:03:53.750Z,61.30
2019-04-21T01:05:00.221Z,60.70
2019-04-21T01:06:00.780Z,60.70
2019-04-21T01:07:07.192Z,61.10
2019-04-21T01:08:11.493Z,60.90
2019-04-21T01:09:13.577Z,61.10
2019-04-21T01:10:14.455Z,60.50
2019-04-21T01:11:32.051Z,61.00
2019-04-21T01:12:37.943Z,61.10
2019-04-21T01:13:41.262Z,60.90
2019-04-21T01:14:50.092Z,61.10
2019-04-21T01:15:53.351Z,61.20
2019-04-21T01:17:00.381Z,61.20
2019-04-21T01:18:04.852Z,61.30
2019-04-21T01:19:12.115Z,61.70
2019-04-21T01:20:10.541Z,61.90
2019-04-21T01:21:13.382Z,61.30
2019-04-21T01:22:08.751Z,61.00
2019-04-21T01:23:12.919Z,61.50
2019-04-21T01:24:26.578Z,61.70
2019-04-21T01:25:33.065Z,62.20
2019-04-21T01:26:42.784Z,62.30
2019-04-21T01:28:07.258Z,61.90
2019-04-21T01:29:02.849Z,61.70
2019-04-21T01:30:14.342Z,61.50
2019-04-21T01:31:09.799Z,61.40
2019-04-21T01:32:25.756Z,61.70
2019-04-21T01:33:26.109Z,62.30
2019-04-21T01:34:36.692Z,62.20
2019-04-21T01:35:39.692Z,62.50
2019-04-21T01:36:38.650Z,62.40
2019-04-21T01:38:00.134Z,62.20
2019-04-21T01:39:02.247Z,62.00
2019-04-21T01:40:14.744Z,62.30
2019-04-21T01:41:13.199Z,62.50
2019-04-21T01:42:15.907Z,62.90
2019-04-21T01:43:20.078Z,62.80
2019-04-21T01:44:29.814Z,62.90
2019-04-21T01:45:31.708Z,62.90
2019-04-21T01:46:33.541Z,63.10
2019-04-21T01:47:44.897Z,63.10
2019-04-21T01:48:47.977Z,63.30
2019-04-21T01:49:47.616Z,63.20
2019-04-21T01:50:55.498Z,63.00
2019-04-21T01:52:17.611Z,63.00
2019-04-21T01:53:24.894Z,63.40
2019-04-21T01:54:52.005Z,63.40
2019-04-21T01:56:08.068Z,63.10
2019-04-21T01:57:23.034Z,63.30
2019-04-21T01:58:26.985Z,62.80
2019-04-21T01:59:35.304Z,61.60
2019-04-21T02:01:02.132Z,62.00
2019-04-21T02:02:10.665Z,62.10
2019-04-21T02:03:36.233Z,61.80
2019-04-21T02:04:29.305Z,61.00
2019-04-21T02:05:39.438Z,60.70
2019-04-21T02:06:34.844Z,61.30
2019-04-21T02:07:40.620Z,60.50
2019-04-21T02:08:44.773Z,60.90
2019-04-21T02:09:58.850Z,60.90
2019-04-21T02:11:05.182Z,61.10
2019-04-21T02:12:10.575Z,61.80
2019-04-21T02:13:12.116Z,61.40
2019-04-21T02:14:23.699Z,61.30
2019-04-21T02:15:33.030Z,61.30
2019-04-21T02:16:28.279Z,61.40
2019-04-21T02:17:35.680Z,61.90
2019-04-21T02:18:39.093Z,62.60
2019-04-21T02:19:45.132Z,63.30
2019-04-21T02:20:44.527Z,63.50
2019-04-21T02:21:52.931Z,63.60
2019-04-21T02:23:17.754Z,63.00
2019-04-21T02:24:37.681Z,63.10
2019-04-21T02:25:22.712Z,63.60
2019-04-21T02:26:32.010Z,63.00
2019-04-21T02:27:31.770Z,63.10
2019-04-21T02:28:44.710Z,62.70
2019-04-21T02:29:48.765Z,62.80
2019-04-21T02:31:07.988Z,62.70
2019-04-21T02:32:11.375Z,62.70
2019-04-21T02:33:08.685Z,62.90
2019-04-21T02:35:30.564Z,62.80
2019-04-21T02:36:40.266Z,63.00
2019-04-21T02:37:55.665Z,62.80
2019-04-21T02:39:48.914Z,63.00
2019-04-21T02:41:55.849Z,63.50
2019-04-21T02:43:07.427Z,63.50
2019-04-21T02:44:10.147Z,63.50
2019-04-21T02:45:19.105Z,63.40
2019-04-21T02:46:31.329Z,63.50
2019-04-21T02:47:38.756Z,63.50
2019-04-21T02:48:38.931Z,63.50
2019-04-21T02:50:00.384Z,63.30
2019-04-21T02:50:47.049Z,64.20
2019-04-21T02:51:54.936Z,63.40
2019-04-21T02:54:35.994Z,63.30
2019-04-21T02:55:11.749Z,63.20
2019-04-21T02:56:18.480Z,63.20
2019-04-21T02:58:58.310Z,63.20
2019-04-21T03:00:06.487Z,63.40
2019-04-21T03:01:23.859Z,63.30
2019-04-21T03:04:36.129Z,63.30
2019-04-21T03:07:14.820Z,64.20
2019-04-21T03:08:14.744Z,63.40
2019-04-21T03:09:25.136Z,63.20
2019-04-21T03:10:39.121Z,63.30
2019-04-21T03:11:28.954Z,63.20
2019-04-21T03:12:38.100Z,63.30
2019-04-21T03:13:46.979Z,63.20
2019-04-21T03:17:05.612Z,63.10
2019-04-21T03:19:33.007Z,63.40
2019-04-21T03:20:23.427Z,63.70
2019-04-21T03:21:29.131Z,63.50
2019-04-21T03:22:31.528Z,63.30
2019-04-21T03:23:46.834Z,63.30
2019-04-21T03:25:20.371Z,63.40
2019-04-21T03:25:50.228Z,63.40
2019-04-21T03:27:10.389Z,63.00
2019-04-21T03:28:08.286Z,62.90
2019-04-21T03:29:11.954Z,63.20
2019-04-21T03:30:29.284Z,63.20
2019-04-21T03:36:25.834Z,63.10
2019-04-21T03:37:14.019Z,63.10
2019-04-21T03:39:17.998Z,63.10
2019-04-21T03:40:14.930Z,62.50
2019-04-21T03:42:36.778Z,62.50
2019-04-21T03:43:28.373Z,62.40
2019-04-21T03:46:47.525Z,62.90
2019-04-21T03:47:57.090Z,63.00
2019-04-21T03:49:04.883Z,63.10
2019-04-21T03:50:12.286Z,63.10
2019-04-21T03:51:21.380Z,63.10
2019-04-21T03:52:27.833Z,62.90
2019-04-21T03:53:24.766Z,63.20
2019-04-21T03:54:37.183Z,62.60
2019-04-21T03:55:52.975Z,62.50
2019-04-21T03:56:59.103Z,62.30
2019-04-21T03:58:10.713Z,62.10
2019-04-21T03:58:58.526Z,62.40
2019-04-21T04:00:28.913Z,63.10
2019-04-21T04:01:37.053Z,62.80
2019-04-21T04:03:33.066Z,62.40
2019-04-21T04:04:52.686Z,62.80
2019-04-21T04:06:11.473Z,62.70
2019-04-21T04:07:33.584Z,62.80
2019-04-21T04:10:04.008Z,62.60
2019-04-21T04:11:12.332Z,63.70
2019-04-21T04:12:09.055Z,63.70
2019-04-21T04:13:15.663Z,64.60
2019-04-21T04:14:25.051Z,64.50
2019-04-21T04:15:38.692Z,63.60
2019-04-21T04:16:37.196Z,62.90
2019-04-21T04:21:10.195Z,63.00
2019-04-21T04:22:22.853Z,62.80
2019-04-21T04:24:22.603Z,63.00
2019-04-21T04:25:38.860Z,63.00
2019-04-21T04:26:32.360Z,62.90
2019-04-21T04:29:53.061Z,62.70
2019-04-21T04:30:52.018Z,62.70
2019-04-21T04:32:00.761Z,63.70
2019-04-21T04:33:07.998Z,64.60
2019-04-21T04:34:18.584Z,63.10
2019-04-21T04:35:21.645Z,62.70
2019-04-21T04:38:50.229Z,62.60
2019-04-21T04:41:33.155Z,62.70
2019-04-21T04:43:09.030Z,62.80
2019-04-21T04:44:14.475Z,62.70
2019-04-21T04:45:15.067Z,62.80
2019-04-21T04:46:26.964Z,62.80
2019-04-21T04:50:49.309Z,63.10
2019-04-21T04:51:58.622Z,64.20
2019-04-21T04:52:46.298Z,64.30
2019-04-21T04:53:53.173Z,64.20
2019-04-21T04:55:03.492Z,64.10
2019-04-21T04:56:10.449Z,64.00
2019-04-21T04:57:45.527Z,63.90
2019-04-21T05:00:00.503Z,63.90
2019-04-21T05:00:34.947Z,63.80
2019-04-21T05:01:44.441Z,63.60
2019-04-21T05:02:46.416Z,63.70
2019-04-21T05:03:56.957Z,63.90
2019-04-21T05:05:09.157Z,64.00
2019-04-21T05:07:33.462Z,63.70
2019-04-21T05:08:56.033Z,63.00
2019-04-21T05:09:39.084Z,63.00
2019-04-21T05:10:57.435Z,63.00
2019-04-21T05:12:58.695Z,63.10
2019-04-21T05:14:13.385Z,63.10
2019-04-21T05:15:09.720Z,63.80
2019-04-21T05:16:26.377Z,64.20
2019-04-21T05:18:24.343Z,64.60
2019-04-21T05:19:32.734Z,64.70
2019-04-21T05:20:29.903Z,65.10
2019-04-21T05:21:42.304Z,65.30
2019-04-21T05:22:50.361Z,64.80
2019-04-21T05:23:49.850Z,64.50
2019-04-21T05:24:53.935Z,64.20
2019-04-21T05:25:54.297Z,64.60
2019-04-21T05:27:03.451Z,64.80
2019-04-21T05:28:06.422Z,64.60
2019-04-21T05:29:13.004Z,64.80
2019-04-21T05:30:40.393Z,65.00
2019-04-21T05:32:08.092Z,65.60
2019-04-21T05:33:19.406Z,65.60
2019-04-21T05:34:42.618Z,65.30
2019-04-21T05:35:56.012Z,65.80
2019-04-21T05:37:25.845Z,66.00
2019-04-21T05:38:39.141Z,66.00
2019-04-21T05:39:49.285Z,66.20
2019-04-21T05:40:51.251Z,66.00
2019-04-21T05:41:52.901Z,66.20
2019-04-21T05:43:10.542Z,66.20
2019-04-21T05:44:19.348Z,65.90
2019-04-21T05:45:23.140Z,65.20
2019-04-21T05:46:25.527Z,64.80
2019-04-21T05:47:56.012Z,65.30
2019-04-21T05:48:57.138Z,65.20
2019-04-21T05:50:06.528Z,64.20
2019-04-21T05:51:09.065Z,63.70
2019-04-21T05:52:19.161Z,64.70
2019-04-21T05:53:29.521Z,64.50
2019-04-21T05:54:44.082Z,65.10
2019-04-21T05:55:46.330Z,65.80
2019-04-21T05:56:51.251Z,66.00
2019-04-21T05:57:46.599Z,65.60
2019-04-21T05:58:58.052Z,65.30
2019-04-21T06:00:06.286Z,64.90
2019-04-21T06:02:27.740Z,64.70
2019-04-21T06:03:32.523Z,65.50
2019-04-21T06:04:54.766Z,65.60
2019-04-21T06:05:44.685Z,65.10
2019-04-21T06:06:47.762Z,65.20
2019-04-21T06:07:52.688Z,64.90
2019-04-21T06:08:59.557Z,64.20
2019-04-21T06:10:27.419Z,64.30
2019-04-21T06:11:19.051Z,64.40
2019-04-21T06:12:21.313Z,64.30
2019-04-21T06:14:37.235Z,63.40
2019-04-21T06:15:48.399Z,63.80
2019-04-21T06:16:49.834Z,63.60
2019-04-21T06:17:52.534Z,63.50
2019-04-21T06:20:02.870Z,63.60
2019-04-21T06:22:07.666Z,63.20
2019-04-21T06:23:20.990Z,62.00
2019-04-21T06:24:25.172Z,61.70
2019-04-21T06:25:50.059Z,61.40
2019-04-21T06:27:49.477Z,60.50
2019-04-21T06:29:04.227Z,60.90
2019-04-21T06:29:55.833Z,60.40
2019-04-21T06:31:14.489Z,60.20
2019-04-21T06:33:18.055Z,59.40
2019-04-21T06:34:49.581Z,59.50
2019-04-21T06:35:52.999Z,59.30
2019-04-21T06:37:07.924Z,59.40
2019-04-21T06:38:11.674Z,58.90
2019-04-21T06:39:12.046Z,59.40
2019-04-21T06:40:21.337Z,59.50
2019-04-21T06:41:26.459Z,59.80
2019-04-21T06:42:25.703Z,59.70
2019-04-21T06:43:41.745Z,59.00
2019-04-21T06:44:48.331Z,59.10
2019-04-21T06:45:55.685Z,59.40
2019-04-21T06:46:53.325Z,59.80
2019-04-21T06:48:06.881Z,59.60
2019-04-21T06:49:02.848Z,59.70
2019-04-21T06:50:12.096Z,59.10
2019-04-21T06:51:22.447Z,58.70
2019-04-21T06:52:52.177Z,58.50
2019-04-21T06:53:39.679Z,58.20
2019-04-21T06:55:38.601Z,57.90
2019-04-21T06:56:47.984Z,57.60
2019-04-21T06:57:56.107Z,57.40
2019-04-21T06:58:55.503Z,58.40
2019-04-21T07:00:03.920Z,58.60
2019-04-21T07:01:15.758Z,58.20
2019-04-21T07:03:42.191Z,58.40
2019-04-21T07:04:31.728Z,58.10
2019-04-21T07:05:43.977Z,58.20
2019-04-21T07:06:48.102Z,58.60
2019-04-21T07:08:12.832Z,58.80
2019-04-21T07:09:02.754Z,58.70
2019-04-21T07:10:02.962Z,58.10
2019-04-21T07:11:03.316Z,58.00
2019-04-21T07:12:07.477Z,57.80
2019-04-21T07:13:15.598Z,57.60
2019-04-21T07:14:29.331Z,57.90
2019-04-21T07:15:35.723Z,58.20
2019-04-21T07:16:38.649Z,58.90
2019-04-21T07:17:38.854Z,57.80
2019-04-21T07:18:51.714Z,58.00
2019-04-21T07:19:58.831Z,58.20
2019-04-21T07:21:01.225Z,58.30
2019-04-21T07:22:06.075Z,58.80
2019-04-21T07:23:16.270Z,58.90
2019-04-21T07:24:22.475Z,58.70
2019-04-21T07:25:22.081Z,58.20
2019-04-21T07:26:32.713Z,58.60
2019-04-21T07:27:35.253Z,58.60
2019-04-21T07:28:40.443Z,58.70
2019-04-21T07:29:47.728Z,59.10
2019-04-21T07:30:59.035Z,59.30
2019-04-21T07:33:20.699Z,59.00
2019-04-21T07:34:13.938Z,58.50
2019-04-21T07:35:15.053Z,58.80
2019-04-21T07:36:30.501Z,58.70
2019-04-21T07:37:31.697Z,58.90
2019-04-21T07:38:34.658Z,59.10
2019-04-21T07:39:42.455Z,58.70
2019-04-21T07:40:38.897Z,58.50
2019-04-21T07:41:43.812Z,58.10
2019-04-21T07:42:51.179Z,57.70
2019-04-21T07:43:57.183Z,58.30
2019-04-21T07:45:05.217Z,58.80
2019-04-21T07:46:10.128Z,58.30
2019-04-21T07:47:23.423Z,57.90
2019-04-21T07:48:32.505Z,57.80
2019-04-21T07:50:08.711Z,57.60
2019-04-21T07:51:31.777Z,58.40
2019-04-21T07:53:08.586Z,57.80
2019-04-21T07:54:13.401Z,57.60
2019-04-21T07:56:07.334Z,56.80
2019-04-21T07:57:27.622Z,56.60
2019-04-21T07:58:39.807Z,56.70
2019-04-21T07:59:48.456Z,56.60
2019-04-21T08:01:51.950Z,56.20
2019-04-21T08:02:54.049Z,56.40
2019-04-21T08:04:03.990Z,56.80
2019-04-21T08:05:16.260Z,57.10
2019-04-21T08:06:12.761Z,57.20
2019-04-21T08:07:47.711Z,57.70
2019-04-21T08:08:44.311Z,57.50
2019-04-21T08:09:55.111Z,57.80
2019-04-21T08:10:56.768Z,57.00
2019-04-21T08:12:00.382Z,56.90
2019-04-21T08:13:09.944Z,57.00
2019-04-21T08:14:17.745Z,57.30
2019-04-21T08:16:30.599Z,56.80
2019-04-21T08:17:30.296Z,56.70
2019-04-21T08:18:39.989Z,56.60
2019-04-21T08:19:43.309Z,56.20
2019-04-21T08:20:47.838Z,57.00
2019-04-21T08:22:09.651Z,57.30
2019-04-21T08:23:11.090Z,57.20
2019-04-21T08:24:06.378Z,57.10
2019-04-21T08:25:15.177Z,57.30
2019-04-21T08:26:33.788Z,57.70
2019-04-21T08:27:26.646Z,58.10
2019-04-21T08:28:35.581Z,58.80
2019-04-21T08:29:39.486Z,57.70
2019-04-21T08:30:43.217Z,58.10
2019-04-21T08:31:56.266Z,58.10
2019-04-21T08:33:09.058Z,57.90
2019-04-21T08:34:07.902Z,58.00
2019-04-21T08:35:49.289Z,57.70
2019-04-21T08:36:25.454Z,57.60
2019-04-21T08:37:22.716Z,58.60
2019-04-21T08:38:31.482Z,59.00
2019-04-21T08:39:42.296Z,59.30
2019-04-21T08:40:55.977Z,59.10
2019-04-21T08:41:46.900Z,58.20
2019-04-21T08:42:52.153Z,58.30
2019-04-21T08:43:58.991Z,58.40
2019-04-21T08:45:07.853Z,58.30
2019-04-21T08:46:13.893Z,58.30
2019-04-21T08:47:19.312Z,58.30
2019-04-21T08:48:22.800Z,58.30
2019-04-21T08:49:32.334Z,58.30
2019-04-21T08:50:32.466Z,58.80
2019-04-21T08:52:04.092Z,58.80
2019-04-21T08:52:52.239Z,59.30
2019-04-21T08:53:56.821Z,59.40
2019-04-21T08:55:15.180Z,58.10
2019-04-21T08:56:33.924Z,59.00
2019-04-21T08:58:08.095Z,58.90
2019-04-21T09:00:46.816Z,59.60
2019-04-21T09:01:55.600Z,59.00
2019-04-21T09:03:11.713Z,58.50
2019-04-21T09:04:12.794Z,58.60
2019-04-21T09:05:20.662Z,59.10
2019-04-21T09:06:40.571Z,59.80
2019-04-21T09:07:36.313Z,59.70
2019-04-21T09:08:44.496Z,59.40
2019-04-21T09:09:43.465Z,59.40
2019-04-21T09:10:47.054Z,58.90
2019-04-21T09:11:54.303Z,58.80
2019-04-21T09:13:03.172Z,59.20
2019-04-21T09:14:07.541Z,58.60
2019-04-21T09:15:17.065Z,58.60
2019-04-21T09:16:18.784Z,58.30
2019-04-21T09:17:22.109Z,57.90
2019-04-21T09:18:22.817Z,57.80
2019-04-21T09:19:44.139Z,58.20
2019-04-21T09:20:50.850Z,58.10
2019-04-21T09:21:49.981Z,57.60
2019-04-21T09:22:54.399Z,57.70
2019-04-21T09:23:56.466Z,58.00
2019-04-21T09:25:01.635Z,58.00
2019-04-21T09:26:14.641Z,58.70
2019-04-21T09:27:15.424Z,61.00
2019-04-21T09:28:22.669Z,59.40
2019-04-21T09:29:23.428Z,58.60
2019-04-21T09:30:17.917Z,59.10
2019-04-21T09:31:26.008Z,57.00
2019-04-21T09:32:32.553Z,56.60
2019-04-21T09:33:40.713Z,56.90
2019-04-21T09:34:43.572Z,55.90
2019-04-21T09:35:53.203Z,56.90
2019-04-21T09:37:08.898Z,57.60
2019-04-21T09:38:10.786Z,55.90
2019-04-21T09:39:15.018Z,54.50
2019-04-21T09:40:20.504Z,54.10
2019-04-21T09:41:24.570Z,55.70
2019-04-21T09:42:37.292Z,57.00
2019-04-21T09:43:41.885Z,54.60
2019-04-21T09:44:43.760Z,55.80
2019-04-21T09:45:47.503Z,55.60
2019-04-21T09:46:55.924Z,54.50
2019-04-21T09:48:04.498Z,55.20
2019-04-21T09:49:06.504Z,53.90
2019-04-21T09:50:11.549Z,55.60
2019-04-21T09:51:15.951Z,55.40
2019-04-21T09:52:25.414Z,54.60
2019-04-21T09:53:32.973Z,55.80
2019-04-21T09:54:35.418Z,56.90
2019-04-21T09:55:46.373Z,54.50
2019-04-21T09:56:52.408Z,54.60
2019-04-21T09:57:55.050Z,56.60
2019-04-21T09:59:07.243Z,56.60
2019-04-21T10:00:11.987Z,54.20
2019-04-21T10:01:18.107Z,52.60
2019-04-21T10:02:21.291Z,50.10
2019-04-21T10:03:21.217Z,49.50
2019-04-21T10:04:26.628Z,48.60
2019-04-21T10:05:31.705Z,48.30
2019-04-21T10:06:37.247Z,48.10
2019-04-21T10:07:43.787Z,48.30
2019-04-21T10:08:51.835Z,48.60
2019-04-21T10:09:54.587Z,47.40
2019-04-21T10:10:59.260Z,46.90
2019-04-21T10:12:03.788Z,47.00
2019-04-21T10:13:07.984Z,44.80
2019-04-21T10:14:12.165Z,43.90
2019-04-21T10:15:16.638Z,43.50
2019-04-21T10:16:49.556Z,42.80
2019-04-21T10:17:58.015Z,43.10
2019-04-21T10:19:02.641Z,44.30
2019-04-21T10:20:09.343Z,44.70
2019-04-21T10:21:13.630Z,45.60
2019-04-21T10:22:19.028Z,46.20
2019-04-21T10:23:23.866Z,46.40
2019-04-21T10:24:28.524Z,47.50
2019-04-21T10:25:32.891Z,47.90
2019-04-21T10:26:37.543Z,46.80
2019-04-21T10:27:43.191Z,48.20
2019-04-21T10:28:49.018Z,48.40
2019-04-21T10:29:53.954Z,47.70
2019-04-21T10:30:58.591Z,47.50
2019-04-21T10:32:03.610Z,46.80
2019-04-21T10:33:08.402Z,47.00
2019-04-21T10:34:13.498Z,45.50
2019-04-21T10:35:20.927Z,45.20
2019-04-21T10:36:24.877Z,44.20
2019-04-21T10:37:42.360Z,44.80
2019-04-21T10:38:42.312Z,45.50
2019-04-21T10:39:41.913Z,45.90
2019-04-21T10:40:47.450Z,46.60
2019-04-21T10:41:53.165Z,45.60
2019-04-21T10:42:58.398Z,43.60
2019-04-21T10:44:03.113Z,43.70
2019-04-21T10:45:08.087Z,44.60
2019-04-21T10:46:12.894Z,45.40
2019-04-21T10:47:18.582Z,45.60
2019-04-21T10:48:23.152Z,46.10
2019-04-21T10:49:28.626Z,46.40
2019-04-21T10:50:33.315Z,46.20
2019-04-21T10:51:37.559Z,44.70
2019-04-21T10:53:00.903Z,45.10
2019-04-21T10:54:06.273Z,42.80
2019-04-21T10:55:26.302Z,43.40
2019-04-21T10:56:23.935Z,44.50
2019-04-21T10:57:26.445Z,44.70
2019-04-21T10:58:36.329Z,45.20
2019-04-21T10:59:46.208Z,44.90
2019-04-21T11:00:48.388Z,41.90
2019-04-21T11:01:52.889Z,40.60
2019-04-21T11:03:17.144Z,40.70
2019-04-21T11:04:35.170Z,41.10
2019-04-21T11:05:36.763Z,42.50
2019-04-21T11:06:42.121Z,40.20
2019-04-21T11:08:04.861Z,40.70
2019-04-21T11:08:57.903Z,41.50
2019-04-21T11:10:04.378Z,42.60
2019-04-21T11:11:10.009Z,43.50
2019-04-21T11:12:15.565Z,44.30
2019-04-21T11:13:20.780Z,45.00
2019-04-21T11:14:45.152Z,44.80
2019-04-21T11:15:50.787Z,44.30
2019-04-21T11:16:56.507Z,45.10
2019-04-21T11:18:01.778Z,46.50
2019-04-21T11:19:06.401Z,46.60
2019-04-21T11:20:10.851Z,46.20
2019-04-21T11:21:16.566Z,46.60
2019-04-21T11:22:20.959Z,46.60
2019-04-21T11:23:25.251Z,46.90
2019-04-21T11:24:29.442Z,46.30
2019-04-21T11:25:33.889Z,42.90
2019-04-21T11:26:38.286Z,41.30
2019-04-21T11:27:42.917Z,42.40
2019-04-21T11:28:47.426Z,42.30
2019-04-21T11:29:51.813Z,41.70
2019-04-21T11:30:57.157Z,42.70
2019-04-21T11:32:02.928Z,42.30
2019-04-21T11:33:08.976Z,43.20
2019-04-21T11:34:13.556Z,42.90
2019-04-21T11:35:19.183Z,42.70
2019-04-21T11:36:24.868Z,43.50
2019-04-21T11:37:32.270Z,42.50
2019-04-21T11:39:03.317Z,43.90
2019-04-21T11:39:59.308Z,45.20
2019-04-21T11:40:58.023Z,43.50
2019-04-21T11:42:07.760Z,41.70
2019-04-21T11:43:13.583Z,39.60
2019-04-21T11:44:18.623Z,38.50
2019-04-21T11:45:30.534Z,38.60
2019-04-21T11:46:36.189Z,39.40
2019-04-21T11:47:46.011Z,40.50
2019-04-21T11:48:50.569Z,41.70
2019-04-21T11:49:54.962Z,40.60
2019-04-21T11:50:59.406Z,39.90
2019-04-21T11:52:04.881Z,40.00
2019-04-21T11:53:10.526Z,40.20
2019-04-21T11:54:15.154Z,41.50
2019-04-21T11:55:20.589Z,40.40
2019-04-21T11:56:25.156Z,39.10
2019-04-21T11:57:34.958Z,38.70
2019-04-21T11:58:36.241Z,40.10
2019-04-21T11:59:41.626Z,40.50
2019-04-21T12:00:47.856Z,38.30
2019-04-21T12:01:52.215Z,37.20
2019-04-21T12:02:57.603Z,37.40
2019-04-21T12:04:03.299Z,38.90
2019-04-21T12:05:08.145Z,40.40
2019-04-21T12:06:13.420Z,39.00
2019-04-21T12:07:17.767Z,38.40
2019-04-21T12:08:29.945Z,38.70
2019-04-21T12:09:29.278Z,39.70
2019-04-21T12:10:33.731Z,40.50
2019-04-21T12:11:39.010Z,40.60
2019-04-21T12:12:43.381Z,41.90
2019-04-21T12:13:48.035Z,43.00
2019-04-21T12:14:52.471Z,43.90
2019-04-21T12:15:57.138Z,45.00
2019-04-21T12:17:02.674Z,45.80
2019-04-21T12:18:08.000Z,45.90
2019-04-21T12:19:12.655Z,46.30
2019-04-21T12:20:16.902Z,46.60
2019-04-21T12:21:21.263Z,46.80
2019-04-21T12:22:29.980Z,47.00
2019-04-21T12:23:32.354Z,47.40
2019-04-21T12:24:38.066Z,47.70
2019-04-21T12:25:45.350Z,48.90
2019-04-21T12:26:49.940Z,46.90
2019-04-21T12:27:54.307Z,47.50
2019-04-21T12:28:59.645Z,47.20
2019-04-21T12:30:05.899Z,46.90
2019-04-21T12:31:35.873Z,48.20
2019-04-21T12:32:51.927Z,46.00
2019-04-21T12:33:58.135Z,47.40
2019-04-21T12:35:03.885Z,46.30
2019-04-21T12:36:09.466Z,45.10
2019-04-21T12:37:15.076Z,47.10
2019-04-21T12:38:30.194Z,47.80
2019-04-21T12:39:26.992Z,45.10
2019-04-21T12:40:32.592Z,47.20
2019-04-21T12:41:38.375Z,47.10
2019-04-21T12:42:43.671Z,47.60
2019-04-21T12:43:48.741Z,48.30
2019-04-21T12:44:52.989Z,48.40
2019-04-21T12:45:58.059Z,49.00
2019-04-21T12:47:03.616Z,49.50
2019-04-21T12:48:08.357Z,49.60
2019-04-21T12:49:13.788Z,50.00
2019-04-21T12:50:18.324Z,50.00
2019-04-21T12:51:23.834Z,50.20
2019-04-21T12:52:29.402Z,50.20
2019-04-21T12:53:34.088Z,47.50
2019-04-21T12:54:39.648Z,45.80
2019-04-21T12:55:46.024Z,43.80
2019-04-21T12:56:50.053Z,44.10
2019-04-21T12:57:55.232Z,45.00
2019-04-21T12:58:59.665Z,46.60
2019-04-21T13:00:04.835Z,47.80
2019-04-21T13:01:09.438Z,48.60
2019-04-21T13:02:13.897Z,45.20
2019-04-21T13:03:20.521Z,47.70
2019-04-21T13:04:24.109Z,48.30
2019-04-21T13:05:29.622Z,47.90
2019-04-21T13:06:34.106Z,48.80
2019-04-21T13:07:39.463Z,49.20
2019-04-21T13:08:50.963Z,49.50
2019-04-21T13:09:50.450Z,50.10
2019-04-21T13:10:55.998Z,45.00
2019-04-21T13:12:01.441Z,46.60
2019-04-21T13:13:05.953Z,46.50
2019-04-21T13:14:11.484Z,46.40
2019-04-21T13:15:17.838Z,44.10
2019-04-21T13:16:23.368Z,43.30
2019-04-21T13:17:27.824Z,42.80
2019-04-21T13:18:33.235Z,43.40
2019-04-21T13:19:38.955Z,42.20
2019-04-21T13:20:44.338Z,43.70
2019-04-21T13:21:49.865Z,44.80
2019-04-21T13:22:54.386Z,46.00
2019-04-21T13:23:58.905Z,46.40
2019-04-21T13:25:03.314Z,47.50
2019-04-21T13:26:08.286Z,48.30
2019-04-21T13:27:13.589Z,47.80
2019-04-21T13:28:18.745Z,47.80
2019-04-21T13:29:23.942Z,48.70
2019-04-21T13:30:28.512Z,48.70
2019-04-21T13:31:34.115Z,47.00
2019-04-21T13:32:39.164Z,48.00
2019-04-21T13:33:45.833Z,49.10
2019-04-21T13:34:50.971Z,49.20
2019-04-21T13:35:55.403Z,49.70
2019-04-21T13:36:59.670Z,50.10
2019-04-21T13:38:04.637Z,49.60
2019-04-21T13:39:55.615Z,50.20
2019-04-21T13:41:12.246Z,50.90
2019-04-21T13:42:11.895Z,50.40
2019-04-21T13:43:10.274Z,50.90
2019-04-21T13:44:15.885Z,51.40
2019-04-21T13:45:21.926Z,51.20
2019-04-21T13:46:27.195Z,47.20
2019-04-21T13:47:32.530Z,45.00
2019-04-21T13:48:36.989Z,46.30
2019-04-21T13:49:41.582Z,44.70
2019-04-21T13:50:47.040Z,43.70
2019-04-21T13:51:52.039Z,44.50
2019-04-21T13:52:56.621Z,44.60
2019-04-21T13:54:01.942Z,46.10
2019-04-21T13:55:07.738Z,47.90
2019-04-21T13:56:12.102Z,48.20
2019-04-21T13:57:16.666Z,48.80
2019-04-21T13:58:22.099Z,48.10
2019-04-21T13:59:26.551Z,48.90
2019-04-21T14:00:31.759Z,49.40
2019-04-21T14:01:36.211Z,46.90
2019-04-21T14:02:40.862Z,47.90
2019-04-21T14:03:45.115Z,48.00
2019-04-21T14:04:49.693Z,49.40
2019-04-21T14:05:54.174Z,45.30
2019-04-21T14:06:58.564Z,41.50
2019-04-21T14:08:03.172Z,40.40
2019-04-21T14:09:10.583Z,40.00
2019-04-21T14:10:16.101Z,40.80
2019-04-21T14:11:21.196Z,41.90
2019-04-21T14:12:25.532Z,43.40
2019-04-21T14:13:30.322Z,44.00
2019-04-21T14:14:34.621Z,42.50
2019-04-21T14:15:39.976Z,40.90
2019-04-21T14:16:45.690Z,39.40
2019-04-21T14:17:50.893Z,40.40
2019-04-21T14:18:55.386Z,41.80
2019-04-21T14:19:59.561Z,43.90
2019-04-21T14:21:04.973Z,44.30
2019-04-21T14:22:11.673Z,45.00
2019-04-21T14:23:25.543Z,46.00
2019-04-21T14:24:22.588Z,46.50
2019-04-21T14:25:27.943Z,47.30
2019-04-21T14:26:32.254Z,47.80
2019-04-21T14:27:36.511Z,48.10
2019-04-21T14:28:41.078Z,48.00
2019-04-21T14:29:45.940Z,48.90
2019-04-21T14:30:50.579Z,48.70
2019-04-21T14:31:56.027Z,45.90
2019-04-21T14:33:00.461Z,48.10
2019-04-21T14:34:05.878Z,48.20
2019-04-21T14:35:10.943Z,44.30
2019-04-21T14:36:16.780Z,39.70
2019-04-21T14:37:22.486Z,38.60
2019-04-21T14:38:27.030Z,39.50
2019-04-21T14:39:32.470Z,41.80
2019-04-21T14:40:38.486Z,43.20
2019-04-21T14:41:43.960Z,44.00
2019-04-21T14:42:49.680Z,45.20
2019-04-21T14:43:55.128Z,45.90
2019-04-21T14:45:00.841Z,46.60
2019-04-21T14:46:13.268Z,47.00
2019-04-21T14:47:39.937Z,47.50
2019-04-21T14:49:03.417Z,48.00
2019-04-21T14:50:42.463Z,48.00
2019-04-21T14:51:54.672Z,49.50
2019-04-21T14:53:11.922Z,49.20
2019-04-21T14:54:34.044Z,47.40
2019-04-21T14:55:41.558Z,48.00
2019-04-21T14:56:47.209Z,43.40
2019-04-21T14:57:51.668Z,42.20
2019-04-21T14:58:58.712Z,45.10
2019-04-21T15:00:03.018Z,46.10
2019-04-21T15:01:08.324Z,47.20
2019-04-21T15:02:14.066Z,45.30
2019-04-21T15:03:19.496Z,43.90
2019-04-21T15:04:24.124Z,45.10
2019-04-21T15:05:29.384Z,47.00
2019-04-21T15:06:33.746Z,47.60
2019-04-21T15:07:39.214Z,47.90
2019-04-21T15:08:44.839Z,48.20
2019-04-21T15:10:01.149Z,48.70
2019-04-21T15:10:56.792Z,49.10
2019-04-21T15:12:02.395Z,49.40
2019-04-21T15:13:07.730Z,49.60
2019-04-21T15:14:13.711Z,49.50
2019-04-21T15:15:18.257Z,50.70
2019-04-21T15:16:22.831Z,50.40
2019-04-21T15:17:29.134Z,50.80
2019-04-21T15:18:33.083Z,50.80